Kahuta Weather



Kahuta's Current Weather

Temprature 8.42o clear sky

clear sky

Rain: 0 %

Min Temprature8o
Max Temprature8.89o
Humidity40
Wind Speed5.1 m/h
Sun Rise07:07:52
Sun Set17:28:27
Current Time: 24-Jan-2020 01:52:51
Lat/Lon: 33.59, 73.39




Kahuta's Geo Location



Kahuta's Weather Forecast

Time Overall Temp Min Temp Max Temp Humidity Wind Speed Rain
24-Jan-2020 (Fri)
02:00:00 clear sky 7.140 6.640 7.140 40 3.18 m/h 0 %
05:00:00 clear sky 6.350 5.980 6.350 38 2.92 m/h 0 %
08:00:00 clear sky 6.850 6.600 6.850 36 2.27 m/h 0 %
11:00:00 clear sky 14.760 14.640 14.760 23 0.82 m/h 0 %
14:00:00 overcast clouds 16.120 16.120 16.120 26 1.96 m/h 0 %
17:00:00 overcast clouds 12.930 12.930 12.930 38 2.36 m/h 0 %
20:00:00 overcast clouds 10.510 10.510 10.510 40 1.54 m/h 0 %
23:00:00 overcast clouds 10.300 10.300 10.300 39 1.14 m/h 0 %
25-Jan-2020 (Sat)
02:00:00 overcast clouds 11.060 11.060 11.060 40 0.81 m/h 0 %
05:00:00 overcast clouds 9.940 9.940 9.940 51 1.65 m/h 0 %
08:00:00 overcast clouds 10.540 10.540 10.540 60 2.08 m/h 0 %
11:00:00 overcast clouds 12.430 12.430 12.430 61 3.67 m/h 0 %
14:00:00 broken clouds 15.940 15.940 15.940 49 3.15 m/h 0 %
17:00:00 broken clouds 13.830 13.830 13.830 61 2.03 m/h 0 %
20:00:00 clear sky 10.530 10.530 10.530 70 1.72 m/h 0 %
23:00:00 clear sky 9.740 9.740 9.740 69 2.39 m/h 0 %
26-Jan-2020 (Sun)
02:00:00 few clouds 9.160 9.160 9.160 66 2.94 m/h 0 %
05:00:00 few clouds 8.360 8.360 8.360 64 2.2 m/h 0 %
08:00:00 clear sky 8.870 8.870 8.870 61 1.87 m/h 0 %
11:00:00 clear sky 15.630 15.630 15.630 41 1.54 m/h 0 %
14:00:00 clear sky 17.310 17.310 17.310 36 1.83 m/h 0 %
17:00:00 clear sky 14.650 14.650 14.650 46 2.26 m/h 0 %
20:00:00 clear sky 10.600 10.600 10.600 59 1.8 m/h 0 %
23:00:00 clear sky 9.640 9.640 9.640 59 1.49 m/h 0 %
27-Jan-2020 (Mon)
02:00:00 clear sky 8.560 8.560 8.560 55 2.4 m/h 0 %
05:00:00 few clouds 7.870 7.870 7.870 54 2.28 m/h 0 %
08:00:00 overcast clouds 8.750 8.750 8.750 53 2.12 m/h 0 %
11:00:00 overcast clouds 14.700 14.700 14.700 37 1.33 m/h 0 %
14:00:00 overcast clouds 15.730 15.730 15.730 36 2.41 m/h 0 %
17:00:00 overcast clouds 13.290 13.290 13.290 45 2.13 m/h 0 %
20:00:00 overcast clouds 9.760 9.760 9.760 56 1.56 m/h 0 %
23:00:00 light rain 10.060 10.060 10.060 56 2.35 m/h 19 %
28-Jan-2020 (Tue)
02:00:00 light rain 9.810 9.810 9.810 69 5.3 m/h 63 %
05:00:00 light rain 8.520 8.520 8.520 72 0.72 m/h 6 %
08:00:00 moderate rain 7.120 7.120 7.120 91 1.35 m/h 663 %
11:00:00 moderate rain 8.200 8.200 8.200 83 3.58 m/h 369 %
14:00:00 light rain 7.890 7.890 7.890 84 3.78 m/h 206 %
17:00:00 overcast clouds 9.860 9.860 9.860 77 0.88 m/h 0 %
20:00:00 overcast clouds 8.300 8.300 8.300 84 0.51 m/h 0 %
23:00:00 overcast clouds 8.350 8.350 8.350 83 1.67 m/h 0 %

Famous Cities (61)